createdAt,value
2019-05-18T00:00:31.612Z,9.2
2019-05-18T00:01:31.628Z,9.2
2019-05-18T00:02:31.672Z,9.1
2019-05-18T00:03:31.696Z,9.1
2019-05-18T00:04:31.743Z,9.1
2019-05-18T00:05:31.736Z,9.1
2019-05-18T00:06:31.758Z,9.2
2019-05-18T00:07:31.781Z,9.2
2019-05-18T00:08:31.813Z,9.1
2019-05-18T00:09:31.924Z,9.1
2019-05-18T00:10:31.855Z,9.1
2019-05-18T00:11:31.884Z,9.1
2019-05-18T00:12:31.886Z,9.1
2019-05-18T00:13:31.911Z,9.1
2019-05-18T00:14:31.952Z,9.1
2019-05-18T00:15:31.983Z,9.1
2019-05-18T00:16:31.991Z,9.1
2019-05-18T00:17:32.003Z,9.1
2019-05-18T00:18:32.038Z,9.1
2019-05-18T00:19:32.044Z,9.1
2019-05-18T00:20:32.066Z,9.1
2019-05-18T00:21:32.146Z,9.1
2019-05-18T00:22:32.077Z,9.1
2019-05-18T00:23:32.062Z,9.1
2019-05-18T00:24:32.080Z,9.2
2019-05-18T00:25:32.087Z,9.1
2019-05-18T00:26:32.112Z,9.2
2019-05-18T00:27:32.092Z,9.1
2019-05-18T00:28:32.107Z,9.1
2019-05-18T00:29:32.112Z,9.1
2019-05-18T00:30:32.116Z,9
2019-05-18T00:31:32.161Z,9
2019-05-18T00:32:32.127Z,8.9
2019-05-18T00:33:32.156Z,8.9
2019-05-18T00:34:32.140Z,8.8
2019-05-18T00:35:32.119Z,8.8
2019-05-18T00:36:32.155Z,8.8
2019-05-18T00:37:32.191Z,8.8
2019-05-18T00:38:32.274Z,8.7
2019-05-18T00:39:32.326Z,8.7
2019-05-18T00:40:32.328Z,8.7
2019-05-18T00:41:32.379Z,8.7
2019-05-18T00:42:32.414Z,8.7
2019-05-18T00:43:32.475Z,8.7
2019-05-18T00:44:32.457Z,8.7
2019-05-18T00:45:32.524Z,8.6
2019-05-18T00:46:32.631Z,8.6
2019-05-18T00:47:40.651Z,8.6
2019-05-18T00:48:32.709Z,8.6
2019-05-18T00:49:32.725Z,8.6
2019-05-18T00:50:32.768Z,8.6
2019-05-18T00:51:32.846Z,8.6
2019-05-18T00:52:32.898Z,8.6
2019-05-18T00:53:32.904Z,8.6
2019-05-18T00:54:32.950Z,8.6
2019-05-18T00:55:32.959Z,8.6
2019-05-18T00:56:33.050Z,8.6
2019-05-18T00:57:33.084Z,8.6
2019-05-18T00:58:33.136Z,8.6
2019-05-18T00:59:33.158Z,8.6
2019-05-18T01:00:33.208Z,8.6
2019-05-18T01:01:33.257Z,8.6
2019-05-18T01:02:33.283Z,8.6
2019-05-18T01:03:33.296Z,8.6
2019-05-18T01:04:33.350Z,8.6
2019-05-18T01:05:33.419Z,8.6
2019-05-18T01:06:33.475Z,8.5
2019-05-18T01:07:33.537Z,8.5
2019-05-18T01:08:33.550Z,8.5
2019-05-18T01:09:33.609Z,8.5
2019-05-18T01:10:33.645Z,8.5
2019-05-18T01:11:33.663Z,8.5
2019-05-18T01:12:33.721Z,8.5
2019-05-18T01:13:33.695Z,8.5
2019-05-18T01:14:33.758Z,8.4
2019-05-18T01:15:33.780Z,8.4
2019-05-18T01:16:33.822Z,8.4
2019-05-18T01:17:33.863Z,8.4
2019-05-18T01:18:33.868Z,8.4
2019-05-18T01:19:33.905Z,8.4
2019-05-18T01:20:33.963Z,8.4
2019-05-18T01:21:33.965Z,8.4
2019-05-18T01:22:34.023Z,8.3
2019-05-18T01:23:34.051Z,8.3
2019-05-18T01:24:34.081Z,8.3
2019-05-18T01:25:34.104Z,8.3
2019-05-18T01:26:34.144Z,8.3
2019-05-18T01:27:34.101Z,8.3
2019-05-18T01:28:34.166Z,8.3
2019-05-18T01:29:34.203Z,8.3
2019-05-18T01:30:34.267Z,8.3
2019-05-18T01:31:34.256Z,8.3
2019-05-18T01:32:34.301Z,8.3
2019-05-18T01:33:34.318Z,8.3
2019-05-18T01:34:34.341Z,8.2
2019-05-18T01:35:34.415Z,8.2
2019-05-18T01:36:34.388Z,8.2
2019-05-18T01:37:34.436Z,8.2
2019-05-18T01:38:34.468Z,8.2
2019-05-18T01:39:34.558Z,8.2
2019-05-18T01:40:34.569Z,8.2
2019-05-18T01:41:34.557Z,8.2
2019-05-18T01:42:34.597Z,8.2
2019-05-18T01:43:34.625Z,8.3
2019-05-18T01:44:34.671Z,8.3
2019-05-18T01:45:34.750Z,8.3
2019-05-18T01:46:34.723Z,8.3
2019-05-18T01:47:34.726Z,8.4
2019-05-18T01:48:34.743Z,8.4
2019-05-18T01:49:35.014Z,8.4
2019-05-18T01:50:34.847Z,8.4
2019-05-18T01:51:35.046Z,8.4
2019-05-18T01:52:34.848Z,8.4
2019-05-18T01:53:34.863Z,8.4
2019-05-18T01:54:34.872Z,8.4
2019-05-18T01:55:34.904Z,8.4
2019-05-18T01:56:34.933Z,8.4
2019-05-18T01:57:35.205Z,8.4
2019-05-18T01:58:34.938Z,8.4
2019-05-18T01:59:34.965Z,8.3
2019-05-18T02:00:34.998Z,8.3
2019-05-18T02:01:35.005Z,8.3
2019-05-18T02:02:35.043Z,8.3
2019-05-18T02:03:35.043Z,8.3
2019-05-18T02:04:35.060Z,8.3
2019-05-18T02:05:35.066Z,8.3
2019-05-18T02:06:35.091Z,8.3
2019-05-18T02:07:35.126Z,8.3
2019-05-18T02:08:35.118Z,8.3
2019-05-18T02:09:35.118Z,8.3
2019-05-18T02:10:35.128Z,8.3
2019-05-18T02:11:35.126Z,8.3
2019-05-18T02:12:35.142Z,8.3
2019-05-18T02:13:35.125Z,8.3
2019-05-18T02:14:36.254Z,8.4
2019-05-18T02:15:35.147Z,8.4
2019-05-18T02:16:35.153Z,8.4
2019-05-18T02:17:35.178Z,8.4
2019-05-18T02:18:38.301Z,8.4
2019-05-18T02:19:35.182Z,8.4
2019-05-18T02:20:35.205Z,8.4
2019-05-18T02:21:35.158Z,8.4
2019-05-18T02:22:35.162Z,8.4
2019-05-18T02:23:35.245Z,8.4
2019-05-18T02:24:35.345Z,8.4
2019-05-18T02:25:35.344Z,8.5
2019-05-18T02:26:35.415Z,8.5
2019-05-18T02:27:35.409Z,8.5
2019-05-18T02:28:35.464Z,8.5
2019-05-18T02:29:35.473Z,8.5
2019-05-18T02:30:35.482Z,8.5
2019-05-18T02:31:35.594Z,8.5
2019-05-18T02:32:35.569Z,8.5
2019-05-18T02:33:35.633Z,8.4
2019-05-18T02:34:35.735Z,8.4
2019-05-18T02:35:35.763Z,8.5
2019-05-18T02:36:35.787Z,8.4
2019-05-18T02:37:35.825Z,8.5
2019-05-18T02:38:35.876Z,8.5
2019-05-18T02:39:35.874Z,8.5
2019-05-18T02:40:35.939Z,8.5
2019-05-18T02:41:35.971Z,8.5
2019-05-18T02:42:35.950Z,8.4
2019-05-18T02:43:35.963Z,8.4
2019-05-18T02:44:35.957Z,8.4
2019-05-18T02:45:36.001Z,8.4
2019-05-18T02:46:36.056Z,8.4
2019-05-18T02:47:36.041Z,8.4
2019-05-18T02:48:48.239Z,8.4
2019-05-18T02:49:36.166Z,8.3
2019-05-18T02:50:36.187Z,8.3
2019-05-18T02:51:36.216Z,8.3
2019-05-18T02:52:36.316Z,8.3
2019-05-18T02:53:36.342Z,8.2
2019-05-18T02:54:36.341Z,8.2
2019-05-18T02:55:36.355Z,8.2
2019-05-18T02:56:36.427Z,8.2
2019-05-18T02:57:36.466Z,8.2
2019-05-18T02:58:36.445Z,8.2
2019-05-18T02:59:36.486Z,8.1
2019-05-18T03:00:36.516Z,8.1
2019-05-18T03:01:36.549Z,8.1
2019-05-18T03:02:36.663Z,8.1
2019-05-18T03:03:36.656Z,8.1
2019-05-18T03:04:36.754Z,8.1
2019-05-18T03:05:39.180Z,8.1
2019-05-18T03:06:36.769Z,8.1
2019-05-18T03:07:36.834Z,8.2
2019-05-18T03:08:36.851Z,8.2
2019-05-18T03:09:36.895Z,8.2
2019-05-18T03:10:36.921Z,8.2
2019-05-18T03:11:36.972Z,8.2
2019-05-18T03:12:37.065Z,8.2
2019-05-18T03:13:37.079Z,8.3
2019-05-18T03:14:37.102Z,8.3
2019-05-18T03:15:37.162Z,8.3
2019-05-18T03:16:37.198Z,8.3
2019-05-18T03:17:37.230Z,8.3
2019-05-18T03:18:37.255Z,8.4
2019-05-18T03:19:37.275Z,8.4
2019-05-18T03:20:37.281Z,8.4
2019-05-18T03:21:37.320Z,8.4
2019-05-18T03:22:37.376Z,8.4
2019-05-18T03:23:37.396Z,8.4
2019-05-18T03:24:37.388Z,8.4
2019-05-18T03:25:37.452Z,8.4
2019-05-18T03:26:37.472Z,8.4
2019-05-18T03:27:37.523Z,8.4
2019-05-18T03:28:37.488Z,8.4
2019-05-18T03:29:37.510Z,8.4
2019-05-18T03:30:37.607Z,8.3
2019-05-18T03:31:37.608Z,8.3
2019-05-18T03:32:37.710Z,8.4
2019-05-18T03:33:37.689Z,8.4
2019-05-18T03:34:37.726Z,8.4
2019-05-18T03:35:37.711Z,8.4
2019-05-18T03:36:37.710Z,8.4
2019-05-18T03:37:37.743Z,8.4
2019-05-18T03:38:37.781Z,8.4
2019-05-18T03:39:37.801Z,8.4
2019-05-18T03:40:37.815Z,8.4
2019-05-18T03:41:37.857Z,8.4
2019-05-18T03:42:37.888Z,8.4
2019-05-18T03:43:37.887Z,8.4
2019-05-18T03:44:37.903Z,8.4
2019-05-18T03:45:37.930Z,8.4
2019-05-18T03:46:37.985Z,8.4
2019-05-18T03:47:37.956Z,8.4
2019-05-18T03:48:37.991Z,8.4
2019-05-18T03:49:38.047Z,8.4
2019-05-18T03:50:38.023Z,8.4
2019-05-18T03:51:38.062Z,8.4
2019-05-18T03:52:38.070Z,8.4
2019-05-18T03:53:38.111Z,8.5
2019-05-18T03:54:38.123Z,8.5
2019-05-18T03:55:38.123Z,8.5
2019-05-18T03:56:38.172Z,8.5
2019-05-18T03:57:38.243Z,8.5
2019-05-18T03:58:38.183Z,8.5
2019-05-18T03:59:38.213Z,8.5
2019-05-18T04:00:38.263Z,8.5
2019-05-18T04:01:40.462Z,8.5
2019-05-18T04:02:38.238Z,8.5
2019-05-18T04:03:38.253Z,8.5
2019-05-18T04:04:38.247Z,8.5
2019-05-18T04:05:38.309Z,8.5
2019-05-18T04:06:38.273Z,8.5
2019-05-18T04:07:38.278Z,8.5
2019-05-18T04:08:38.306Z,8.5
2019-05-18T04:09:38.344Z,8.5
2019-05-18T04:10:38.308Z,8.6
2019-05-18T04:11:38.307Z,8.6
2019-05-18T04:12:38.329Z,8.6
2019-05-18T04:13:38.300Z,8.6
2019-05-18T04:14:38.372Z,8.6
2019-05-18T04:15:38.313Z,8.7
2019-05-18T04:16:38.350Z,8.7
2019-05-18T04:17:38.413Z,8.7
2019-05-18T04:18:38.399Z,8.7
2019-05-18T04:19:46.042Z,8.7
2019-05-18T04:20:38.529Z,8.7
2019-05-18T04:21:38.599Z,8.7
2019-05-18T04:22:38.711Z,8.7
2019-05-18T04:23:38.666Z,8.7
2019-05-18T04:24:38.721Z,8.7
2019-05-18T04:25:38.764Z,8.7
2019-05-18T04:26:38.781Z,8.7
2019-05-18T04:27:38.887Z,8.7
2019-05-18T04:28:38.958Z,8.7
2019-05-18T04:29:38.959Z,8.7
2019-05-18T04:30:39.005Z,8.7
2019-05-18T04:31:39.123Z,8.7
2019-05-18T04:32:39.080Z,8.7
2019-05-18T04:33:39.131Z,8.7
2019-05-18T04:34:39.235Z,8.7
2019-05-18T04:35:39.241Z,8.8
2019-05-18T04:36:39.304Z,8.9
2019-05-18T04:37:39.352Z,9
2019-05-18T04:38:39.335Z,9.1
2019-05-18T04:39:39.444Z,9.2
2019-05-18T04:40:39.475Z,9.5
2019-05-18T04:41:39.510Z,9.6
2019-05-18T04:42:39.577Z,9.7
2019-05-18T04:43:39.622Z,9.8
2019-05-18T04:44:39.693Z,9.9
2019-05-18T04:45:39.796Z,10
2019-05-18T04:46:39.771Z,10.2
2019-05-18T04:47:39.754Z,10.3
2019-05-18T04:48:39.847Z,10.5
2019-05-18T04:49:39.870Z,10.7
2019-05-18T04:50:39.937Z,10.8
2019-05-18T04:51:39.954Z,10.9
2019-05-18T04:52:40.004Z,11
2019-05-18T04:53:40.050Z,11.1
2019-05-18T04:54:40.094Z,11.2
2019-05-18T04:55:40.165Z,11.3
2019-05-18T04:56:42.780Z,11.4
2019-05-18T04:57:40.184Z,11.5
2019-05-18T04:58:40.209Z,11.6
2019-05-18T04:59:40.265Z,11.7
2019-05-18T05:00:40.329Z,11.9
2019-05-18T05:01:40.311Z,12
2019-05-18T05:02:40.340Z,12.1
2019-05-18T05:03:40.359Z,12.2
2019-05-18T05:04:40.403Z,12.3
2019-05-18T05:05:40.445Z,12.4
2019-05-18T05:06:40.435Z,12.4
2019-05-18T05:07:40.452Z,12.5
2019-05-18T05:08:40.500Z,12.6
2019-05-18T05:09:40.498Z,12.6
2019-05-18T05:10:40.587Z,12.7
2019-05-18T05:11:40.829Z,12.8
2019-05-18T05:12:40.610Z,12.8
2019-05-18T05:13:40.634Z,12.9
2019-05-18T05:14:40.713Z,12.9
2019-05-18T05:15:40.724Z,13
2019-05-18T05:16:40.734Z,13
2019-05-18T05:17:40.756Z,13.1
2019-05-18T05:18:40.804Z,13.1
2019-05-18T05:19:40.825Z,13.1
2019-05-18T05:20:40.908Z,13.2
2019-05-18T05:21:40.896Z,13.2
2019-05-18T05:22:40.921Z,13.2
2019-05-18T05:23:40.927Z,13.3
2019-05-18T05:24:40.998Z,13.3
2019-05-18T05:25:41.006Z,13.3
2019-05-18T05:26:40.976Z,13.4
2019-05-18T05:27:40.991Z,13.4
2019-05-18T05:28:41.022Z,13.5
2019-05-18T05:29:41.050Z,13.5
2019-05-18T05:30:41.106Z,13.5
2019-05-18T05:31:41.108Z,13.5
2019-05-18T05:32:41.146Z,13.6
2019-05-18T05:33:41.140Z,13.6
2019-05-18T05:34:41.214Z,13.6
2019-05-18T05:35:41.191Z,13.6
2019-05-18T05:36:41.221Z,13.7
2019-05-18T05:37:41.222Z,13.7
2019-05-18T05:38:43.493Z,13.7
2019-05-18T05:39:41.246Z,13.7
2019-05-18T05:40:41.275Z,13.7
2019-05-18T05:41:41.294Z,13.7
2019-05-18T05:42:41.315Z,13.8
2019-05-18T05:43:41.327Z,13.8
2019-05-18T05:44:41.369Z,13.8
2019-05-18T05:45:41.371Z,13.8
2019-05-18T05:46:41.418Z,13.8
2019-05-18T05:47:41.392Z,13.8
2019-05-18T05:48:41.416Z,13.8
2019-05-18T05:49:41.480Z,13.8
2019-05-18T05:50:41.422Z,13.8
2019-05-18T05:51:41.413Z,13.8
2019-05-18T05:52:41.512Z,13.8
2019-05-18T05:53:41.430Z,13.8
2019-05-18T05:54:41.484Z,13.8
2019-05-18T05:55:41.549Z,13.8
2019-05-18T05:56:41.470Z,13.8
2019-05-18T05:57:41.468Z,13.9
2019-05-18T05:58:41.490Z,13.9
2019-05-18T05:59:41.473Z,13.8
2019-05-18T06:00:41.476Z,13.8
2019-05-18T06:01:41.476Z,13.9
2019-05-18T06:02:41.594Z,13.9
2019-05-18T06:03:41.589Z,13.9
2019-05-18T06:04:41.647Z,13.9
2019-05-18T06:05:41.650Z,14
2019-05-18T06:06:41.697Z,14
2019-05-18T06:07:41.773Z,14
2019-05-18T06:08:41.835Z,14.1
2019-05-18T06:09:44.149Z,14.1
2019-05-18T06:10:41.833Z,14.2
2019-05-18T06:11:41.872Z,14.3
2019-05-18T06:12:41.945Z,14.4
2019-05-18T06:13:41.931Z,14.5
2019-05-18T06:14:41.997Z,14.6
2019-05-18T06:15:42.038Z,14.7
2019-05-18T06:16:42.064Z,14.8
2019-05-18T06:17:42.102Z,15
2019-05-18T06:18:42.124Z,15.1
2019-05-18T06:19:42.174Z,15.2
2019-05-18T06:20:50.742Z,15.3
2019-05-18T06:21:42.289Z,15.4
2019-05-18T06:22:42.403Z,15.5
2019-05-18T06:23:42.387Z,15.5
2019-05-18T06:24:42.441Z,15.6
2019-05-18T06:25:42.484Z,15.7
2019-05-18T06:26:42.593Z,15.8
2019-05-18T06:27:42.611Z,15.9
2019-05-18T06:28:42.652Z,15.9
2019-05-18T06:29:42.721Z,16
2019-05-18T06:30:42.752Z,16.1
2019-05-18T06:31:42.834Z,16.2
2019-05-18T06:32:42.879Z,16.3
2019-05-18T06:33:42.887Z,16.3
2019-05-18T06:34:42.936Z,16.4
2019-05-18T06:35:42.923Z,16.4
2019-05-18T06:36:42.983Z,16.5
2019-05-18T06:37:43.061Z,16.6
2019-05-18T06:38:43.104Z,16.6
2019-05-18T06:39:43.111Z,16.7
2019-05-18T06:40:43.128Z,16.8
2019-05-18T06:41:43.181Z,16.8
2019-05-18T06:42:43.203Z,16.8
2019-05-18T06:43:43.221Z,16.8
2019-05-18T06:44:43.254Z,16.8
2019-05-18T06:45:43.307Z,16.8
2019-05-18T06:46:43.417Z,16.9
2019-05-18T06:47:43.391Z,16.9
2019-05-18T06:48:43.445Z,16.9
2019-05-18T06:49:43.443Z,17
2019-05-18T06:50:43.523Z,17
2019-05-18T06:51:43.513Z,17
2019-05-18T06:52:43.548Z,17.1
2019-05-18T06:53:43.596Z,17.1
2019-05-18T06:54:43.627Z,17.2
2019-05-18T06:55:43.662Z,17.3
2019-05-18T06:56:43.694Z,17.4
2019-05-18T06:57:43.689Z,17.4
2019-05-18T06:58:43.709Z,17.4
2019-05-18T06:59:43.740Z,17.5
2019-05-18T07:00:43.795Z,17.5
2019-05-18T07:01:43.817Z,17.5
2019-05-18T07:02:43.827Z,17.5
2019-05-18T07:03:45.086Z,17.6
2019-05-18T07:04:44.634Z,17.6
2019-05-18T07:05:43.924Z,17.6
2019-05-18T07:06:43.918Z,17.7
2019-05-18T07:07:43.961Z,17.7
2019-05-18T07:08:44.005Z,17.8
2019-05-18T07:09:44.026Z,17.8
2019-05-18T07:10:44.090Z,17.9
2019-05-18T07:11:44.100Z,17.9
2019-05-18T07:12:44.149Z,18
2019-05-18T07:13:44.146Z,18.1
2019-05-18T07:14:44.172Z,18.1
2019-05-18T07:15:44.212Z,18.2
2019-05-18T07:16:44.238Z,18.2
2019-05-18T07:17:44.271Z,18.3
2019-05-18T07:18:44.272Z,18.3
2019-05-18T07:19:44.321Z,18.4
2019-05-18T07:20:44.311Z,18.4
2019-05-18T07:21:44.329Z,18.5
2019-05-18T07:22:44.351Z,18.5
2019-05-18T07:23:44.375Z,18.6
2019-05-18T07:24:44.419Z,18.6
2019-05-18T07:25:44.427Z,18.7
2019-05-18T07:26:44.473Z,18.7
2019-05-18T07:27:44.469Z,18.7
2019-05-18T07:28:44.463Z,18.7
2019-05-18T07:29:44.493Z,18.8
2019-05-18T07:30:44.493Z,18.9
2019-05-18T07:31:44.557Z,18.9
2019-05-18T07:32:44.501Z,18.9
2019-05-18T07:33:44.514Z,18.9
2019-05-18T07:34:44.554Z,18.9
2019-05-18T07:35:44.558Z,18.9
2019-05-18T07:36:44.540Z,18.8
2019-05-18T07:37:44.578Z,18.8
2019-05-18T07:38:44.623Z,18.8
2019-05-18T07:39:44.581Z,18.9
2019-05-18T07:40:45.589Z,18.9
2019-05-18T07:41:46.985Z,19
2019-05-18T07:42:44.585Z,19.1
2019-05-18T07:43:44.616Z,19.1
2019-05-18T07:44:44.586Z,19.2
2019-05-18T07:45:44.655Z,19.3
2019-05-18T07:46:44.714Z,19.3
2019-05-18T07:47:44.770Z,19.4
2019-05-18T07:48:44.766Z,19.4
2019-05-18T07:49:44.810Z,19.4
2019-05-18T07:50:44.838Z,19.5
2019-05-18T07:51:44.874Z,19.5
2019-05-18T07:52:44.896Z,19.6
2019-05-18T07:53:44.971Z,19.6
2019-05-18T07:54:44.988Z,19.6
2019-05-18T07:55:45.060Z,19.6
2019-05-18T07:56:45.121Z,19.6
2019-05-18T07:57:45.146Z,19.6
2019-05-18T07:58:45.133Z,19.5
2019-05-18T07:59:45.197Z,19.5
2019-05-18T08:00:45.254Z,19.5
2019-05-18T08:01:45.327Z,19.5
2019-05-18T08:02:47.868Z,19.5
2019-05-18T08:03:45.403Z,19.5
2019-05-18T08:04:45.482Z,19.5
2019-05-18T08:05:45.531Z,19.6
2019-05-18T08:06:45.534Z,19.6
2019-05-18T08:07:45.603Z,19.6
2019-05-18T08:08:45.630Z,19.6
2019-05-18T08:09:45.689Z,19.7
2019-05-18T08:10:45.690Z,19.7
2019-05-18T08:11:45.758Z,19.8
2019-05-18T08:12:45.781Z,19.8
2019-05-18T08:13:45.786Z,19.9
2019-05-18T08:14:45.845Z,19.9
2019-05-18T08:15:45.882Z,19.9
2019-05-18T08:16:45.951Z,19.9
2019-05-18T08:17:46.033Z,19.9
2019-05-18T08:18:46.009Z,19.9
2019-05-18T08:19:46.012Z,19.9
2019-05-18T08:20:46.048Z,20
2019-05-18T08:21:53.019Z,20.1
2019-05-18T08:22:46.198Z,20.1
2019-05-18T08:23:46.142Z,20.1
2019-05-18T08:24:46.182Z,20.1
2019-05-18T08:25:46.187Z,20.1
2019-05-18T08:26:46.230Z,20.1
2019-05-18T08:27:46.316Z,20.1
2019-05-18T08:28:46.297Z,20.1
2019-05-18T08:29:46.332Z,20.1
2019-05-18T08:30:46.346Z,20.1
2019-05-18T08:31:46.398Z,20.2
2019-05-18T08:32:46.428Z,20.2
2019-05-18T08:33:46.399Z,20.2
2019-05-18T08:34:46.529Z,20.3
2019-05-18T08:35:46.445Z,20.3
2019-05-18T08:36:46.440Z,20.4
2019-05-18T08:37:46.536Z,20.4
2019-05-18T08:38:46.539Z,20.5
2019-05-18T08:39:46.558Z,20.5
2019-05-18T08:40:46.601Z,20.5
2019-05-18T08:41:48.694Z,20.6
2019-05-18T08:42:46.822Z,20.6
2019-05-18T08:43:46.712Z,20.6
2019-05-18T08:44:46.715Z,20.5
2019-05-18T08:45:46.778Z,20.5
2019-05-18T08:46:46.770Z,20.5
2019-05-18T08:47:46.889Z,20.5
2019-05-18T08:48:46.890Z,20.5
2019-05-18T08:49:46.871Z,20.5
2019-05-18T08:50:46.911Z,20.5
2019-05-18T08:51:46.939Z,20.5
2019-05-18T08:52:47.029Z,20.5
2019-05-18T08:53:46.970Z,20.5
2019-05-18T08:54:47.007Z,20.5
2019-05-18T08:55:47.004Z,20.5
2019-05-18T08:56:47.046Z,20.5
2019-05-18T08:57:47.118Z,20.5
2019-05-18T08:58:47.082Z,20.5
2019-05-18T08:59:47.103Z,20.6
2019-05-18T09:00:47.108Z,20.6
2019-05-18T09:01:47.122Z,20.6
2019-05-18T09:02:47.165Z,20.6
2019-05-18T09:03:47.228Z,20.6
2019-05-18T09:04:47.184Z,20.6
2019-05-18T09:05:47.200Z,20.6
2019-05-18T09:06:47.208Z,20.6
2019-05-18T09:07:47.252Z,20.6
2019-05-18T09:08:47.278Z,20.6
2019-05-18T09:09:47.318Z,20.7
2019-05-18T09:10:47.301Z,20.7
2019-05-18T09:11:47.295Z,20.8
2019-05-18T09:12:47.305Z,20.8
2019-05-18T09:13:47.345Z,20.9
2019-05-18T09:14:47.350Z,20.9
2019-05-18T09:15:47.355Z,20.9
2019-05-18T09:16:47.378Z,20.9
2019-05-18T09:17:47.375Z,20.9
2019-05-18T09:18:47.415Z,20.8
2019-05-18T09:19:47.399Z,20.8
2019-05-18T09:20:47.389Z,20.8
2019-05-18T09:21:47.392Z,20.7
2019-05-18T09:22:47.405Z,20.7
2019-05-18T09:23:47.431Z,20.7
2019-05-18T09:24:47.475Z,20.7
2019-05-18T09:25:47.417Z,20.6
2019-05-18T09:26:47.406Z,20.6
2019-05-18T09:27:47.414Z,20.6
2019-05-18T09:28:49.713Z,20.6
2019-05-18T09:29:47.525Z,20.6
2019-05-18T09:30:47.574Z,20.7
2019-05-18T09:31:47.642Z,20.7
2019-05-18T09:32:47.667Z,20.8
2019-05-18T09:33:47.722Z,20.8
2019-05-18T09:34:47.760Z,20.9
2019-05-18T09:35:47.760Z,21
2019-05-18T09:36:47.812Z,21
2019-05-18T09:37:47.804Z,21
2019-05-18T09:38:47.911Z,21.1
2019-05-18T09:39:47.914Z,21.1
2019-05-18T09:40:47.957Z,21
2019-05-18T09:41:48.020Z,21
2019-05-18T09:42:48.020Z,21
2019-05-18T09:43:48.064Z,21
2019-05-18T09:44:48.126Z,21
2019-05-18T09:45:48.187Z,21
2019-05-18T09:46:48.191Z,20.9
2019-05-18T09:47:48.234Z,21
2019-05-18T09:48:48.299Z,21
2019-05-18T09:49:48.311Z,21
2019-05-18T09:50:48.361Z,21
2019-05-18T09:51:48.417Z,21
2019-05-18T09:52:48.482Z,21
2019-05-18T09:53:51.371Z,21
2019-05-18T09:54:48.523Z,21
2019-05-18T09:55:48.573Z,21.1
2019-05-18T09:56:48.638Z,21.1
2019-05-18T09:57:48.670Z,21.1
2019-05-18T09:58:48.716Z,21.1
2019-05-18T09:59:48.833Z,21.1
2019-05-18T10:00:48.791Z,21.1
2019-05-18T10:01:48.831Z,21.2
2019-05-18T10:02:48.913Z,21.3
2019-05-18T10:03:48.884Z,21.4
2019-05-18T10:04:48.951Z,21.4
2019-05-18T10:05:49.003Z,21.4
2019-05-18T10:06:49.086Z,21.4
2019-05-18T10:07:49.056Z,21.4
2019-05-18T10:08:49.093Z,21.4
2019-05-18T10:09:49.131Z,21.4
2019-05-18T10:10:49.213Z,21.4
2019-05-18T10:11:49.162Z,21.3
2019-05-18T10:12:49.203Z,21.3
2019-05-18T10:13:49.232Z,21.3
2019-05-18T10:14:49.288Z,21.2
2019-05-18T10:15:49.322Z,21.2
2019-05-18T10:16:49.374Z,21.2
2019-05-18T10:17:49.397Z,21.3
2019-05-18T10:18:49.415Z,21.3
2019-05-18T10:19:49.513Z,21.3
2019-05-18T10:20:49.465Z,21.3
2019-05-18T10:21:49.474Z,21.3
2019-05-18T10:22:55.775Z,21.3
2019-05-18T10:23:49.566Z,21.3
2019-05-18T10:24:49.645Z,21.2
2019-05-18T10:25:49.642Z,21.2
2019-05-18T10:26:49.661Z,21.2
2019-05-18T10:27:49.767Z,21.2
2019-05-18T10:28:49.707Z,21.2
2019-05-18T10:29:49.785Z,21.2
2019-05-18T10:30:49.816Z,21.2
2019-05-18T10:31:49.830Z,21.3
2019-05-18T10:32:49.882Z,21.3
2019-05-18T10:33:49.897Z,21.3
2019-05-18T10:34:49.941Z,21.3
2019-05-18T10:35:49.966Z,21.4
2019-05-18T10:36:50.007Z,21.4
2019-05-18T10:37:50.029Z,21.4
2019-05-18T10:38:50.059Z,21.5
2019-05-18T10:39:50.087Z,21.5
2019-05-18T10:40:50.089Z,21.5
2019-05-18T10:41:50.135Z,21.5
2019-05-18T10:42:50.152Z,21.6
2019-05-18T10:43:50.182Z,21.6
2019-05-18T10:44:50.204Z,21.5
2019-05-18T10:45:50.241Z,21.5
2019-05-18T10:46:50.314Z,21.5
2019-05-18T10:47:50.266Z,21.4
2019-05-18T10:48:50.297Z,21.4
2019-05-18T10:49:50.336Z,21.5
2019-05-18T10:50:50.322Z,21.5
2019-05-18T10:51:50.379Z,21.5
2019-05-18T10:52:50.373Z,21.5
2019-05-18T10:53:50.379Z,21.5
2019-05-18T10:54:50.396Z,21.4
2019-05-18T10:55:50.407Z,21.4
2019-05-18T10:56:50.453Z,21.4
2019-05-18T10:57:50.432Z,21.4
2019-05-18T10:58:50.439Z,21.4
2019-05-18T10:59:50.483Z,21.4
2019-05-18T11:00:50.473Z,21.4
2019-05-18T11:01:50.479Z,21.3
2019-05-18T11:02:50.468Z,21.3
2019-05-18T11:03:50.525Z,21.3
2019-05-18T11:04:50.490Z,21.3
2019-05-18T11:05:52.795Z,21.3
2019-05-18T11:06:50.543Z,21.3
2019-05-18T11:07:52.540Z,21.3
2019-05-18T11:08:52.097Z,21.4
2019-05-18T11:09:51.768Z,21.4
2019-05-18T11:10:52.607Z,21.5
2019-05-18T11:11:54.149Z,21.5
2019-05-18T11:12:50.669Z,21.6
2019-05-18T11:13:51.619Z,21.7
2019-05-18T11:14:50.623Z,21.8
2019-05-18T11:15:50.692Z,21.9
2019-05-18T11:16:50.778Z,22
2019-05-18T11:17:50.800Z,22
2019-05-18T11:18:50.836Z,22
2019-05-18T11:19:50.910Z,22
2019-05-18T11:20:50.911Z,22
2019-05-18T11:21:50.982Z,22
2019-05-18T11:22:52.857Z,22
2019-05-18T11:23:56.393Z,22
2019-05-18T11:24:51.143Z,22
2019-05-18T11:25:51.147Z,21.9
2019-05-18T11:26:51.259Z,21.9
2019-05-18T11:27:51.259Z,21.9
2019-05-18T11:28:51.323Z,21.9
2019-05-18T11:29:51.352Z,21.9
2019-05-18T11:30:51.434Z,21.9
2019-05-18T11:31:51.490Z,21.9
2019-05-18T11:32:51.532Z,22
2019-05-18T11:33:51.577Z,22
2019-05-18T11:34:51.634Z,22
2019-05-18T11:35:51.667Z,21.9
2019-05-18T11:36:51.768Z,21.9
2019-05-18T11:37:53.216Z,21.9
2019-05-18T11:38:54.285Z,21.8
2019-05-18T11:39:51.869Z,21.9
2019-05-18T11:40:51.965Z,21.9
2019-05-18T11:41:52.023Z,21.9
2019-05-18T11:42:52.025Z,22
2019-05-18T11:43:52.051Z,22
2019-05-18T11:44:52.112Z,22
2019-05-18T11:45:52.120Z,22
2019-05-18T11:46:52.190Z,22
2019-05-18T11:47:52.231Z,22
2019-05-18T11:48:52.258Z,22
2019-05-18T11:49:52.354Z,22
2019-05-18T11:50:52.356Z,22.1
2019-05-18T11:51:52.421Z,22.1
2019-05-18T11:52:54.504Z,22.1
2019-05-18T11:53:58.042Z,22.1
2019-05-18T11:54:53.845Z,22
2019-05-18T11:55:54.731Z,22
2019-05-18T11:56:52.627Z,22
2019-05-18T11:57:52.663Z,21.9
2019-05-18T11:58:52.668Z,21.9
2019-05-18T11:59:52.714Z,21.9
2019-05-18T12:00:52.756Z,21.9
2019-05-18T12:01:52.802Z,22
2019-05-18T12:02:52.834Z,22
2019-05-18T12:03:52.828Z,22.1
2019-05-18T12:04:52.866Z,22.1
2019-05-18T12:05:52.911Z,22.2
2019-05-18T12:06:52.955Z,22.2
2019-05-18T12:07:53.020Z,22.2
2019-05-18T12:08:53.010Z,22.3
2019-05-18T12:09:53.070Z,22.3
2019-05-18T12:10:56.018Z,22.3
2019-05-18T12:11:53.146Z,22.3
2019-05-18T12:12:53.207Z,22.3
2019-05-18T12:13:53.205Z,22.4
2019-05-18T12:14:53.241Z,22.4
2019-05-18T12:15:53.243Z,22.4
2019-05-18T12:16:53.319Z,22.5
2019-05-18T12:17:53.378Z,22.5
2019-05-18T12:18:57.506Z,22.5
2019-05-18T12:19:53.331Z,22.6
2019-05-18T12:20:53.342Z,22.6
2019-05-18T12:21:53.398Z,22.6
2019-05-18T12:22:53.416Z,22.7
2019-05-18T12:23:53.438Z,22.7
2019-05-18T12:24:53.428Z,22.6
2019-05-18T12:25:53.480Z,22.6
2019-05-18T12:26:53.462Z,22.5
2019-05-18T12:27:53.504Z,22.5
2019-05-18T12:28:53.512Z,22.5
2019-05-18T12:29:53.519Z,22.5
2019-05-18T12:30:53.598Z,22.5
2019-05-18T12:31:53.573Z,22.5
2019-05-18T12:32:53.582Z,22.5
2019-05-18T12:33:53.590Z,22.6
2019-05-18T12:34:53.615Z,22.6
2019-05-18T12:35:53.636Z,22.6
2019-05-18T12:36:53.625Z,22.6
2019-05-18T12:37:53.639Z,22.6
2019-05-18T12:38:53.684Z,22.6
2019-05-18T12:39:53.655Z,22.6
2019-05-18T12:40:53.674Z,22.6
2019-05-18T12:41:53.706Z,22.6
2019-05-18T12:42:53.694Z,22.7
2019-05-18T12:43:53.725Z,22.7
2019-05-18T12:44:53.712Z,22.8
2019-05-18T12:45:53.713Z,22.9
2019-05-18T12:46:53.783Z,22.9
2019-05-18T12:47:53.702Z,22.9
2019-05-18T12:48:53.755Z,22.9
2019-05-18T12:49:53.711Z,22.9
2019-05-18T12:50:53.734Z,22.9
2019-05-18T12:51:53.839Z,22.9
2019-05-18T12:52:53.877Z,23
2019-05-18T12:53:53.945Z,23
2019-05-18T12:54:53.968Z,23
2019-05-18T12:55:54.016Z,23
2019-05-18T12:56:54.055Z,23
2019-05-18T12:57:54.115Z,23
2019-05-18T12:58:54.230Z,23
2019-05-18T12:59:54.306Z,23
2019-05-18T13:00:54.283Z,23
2019-05-18T13:01:54.341Z,23.1
2019-05-18T13:02:54.416Z,23.1
2019-05-18T13:03:54.452Z,23.2
2019-05-18T13:04:54.550Z,23.2
2019-05-18T13:05:54.546Z,23.3
2019-05-18T13:06:54.628Z,23.3
2019-05-18T13:07:54.617Z,23.3
2019-05-18T13:08:54.623Z,23.3
2019-05-18T13:09:54.690Z,23.3
2019-05-18T13:10:54.712Z,23.3
2019-05-18T13:11:54.857Z,23.3
2019-05-18T13:12:54.786Z,23.3
2019-05-18T13:13:54.805Z,23.3
2019-05-18T13:14:54.882Z,23.3
2019-05-18T13:15:54.877Z,23.3
2019-05-18T13:16:54.943Z,23.3
2019-05-18T13:17:54.971Z,23.4
2019-05-18T13:18:55.057Z,23.3
2019-05-18T13:19:55.060Z,23.3
2019-05-18T13:20:57.273Z,23.3
2019-05-18T13:21:55.116Z,23.3
2019-05-18T13:22:55.156Z,23.3
2019-05-18T13:23:55.203Z,23.3
2019-05-18T13:24:55.284Z,23.4
2019-05-18T13:25:55.270Z,23.4
2019-05-18T13:26:55.331Z,23.4
2019-05-18T13:27:55.359Z,23.4
2019-05-18T13:28:55.424Z,23.5
2019-05-18T13:29:55.465Z,23.5
2019-05-18T13:30:56.552Z,23.6
2019-05-18T13:31:55.521Z,23.7
2019-05-18T13:32:55.587Z,23.7